sensor_id;sensor_type;location;lat;lon;timestamp;P1;durP1;ratioP1;P2;durP2;ratioP2
77287;SDS011;66345;42.694;23.346;2023-05-10T00:02:03;6.77;;;3.83;;
77287;SDS011;66345;42.694;23.346;2023-05-10T00:04:28;7.77;;;3.80;;
77287;SDS011;66345;42.694;23.346;2023-05-10T00:06:54;7.27;;;4.33;;
77287;SDS011;66345;42.694;23.346;2023-05-10T00:09:19;10.23;;;4.45;;
77287;SDS011;66345;42.694;23.346;2023-05-10T00:11:45;10.63;;;5.47;;
77287;SDS011;66345;42.694;23.346;2023-05-10T00:14:11;9.57;;;5.20;;
77287;SDS011;66345;42.694;23.346;2023-05-10T00:16:36;10.95;;;5.88;;
77287;SDS011;66345;42.694;23.346;2023-05-10T00:19:02;11.30;;;6.27;;
77287;SDS011;66345;42.694;23.346;2023-05-10T00:21:27;12.70;;;6.53;;
77287;SDS011;66345;42.694;23.346;2023-05-10T00:23:53;11.23;;;6.90;;
77287;SDS011;66345;42.694;23.346;2023-05-10T00:26:19;10.30;;;6.13;;
77287;SDS011;66345;42.694;23.346;2023-05-10T00:28:44;9.60;;;6.10;;
77287;SDS011;66345;42.694;23.346;2023-05-10T00:31:10;9.83;;;6.23;;
77287;SDS011;66345;42.694;23.346;2023-05-10T00:33:35;12.67;;;6.30;;
77287;SDS011;66345;42.694;23.346;2023-05-10T00:36:01;9.88;;;5.95;;
77287;SDS011;66345;42.694;23.346;2023-05-10T00:38:26;11.50;;;6.32;;
77287;SDS011;66345;42.694;23.346;2023-05-10T00:40:51;10.47;;;5.60;;
77287;SDS011;66345;42.694;23.346;2023-05-10T00:43:17;10.87;;;6.47;;
77287;SDS011;66345;42.694;23.346;2023-05-10T00:45:42;10.60;;;6.90;;
77287;SDS011;66345;42.694;23.346;2023-05-10T00:48:08;10.88;;;6.45;;
77287;SDS011;66345;42.694;23.346;2023-05-10T00:50:34;10.60;;;6.07;;
77287;SDS011;66345;42.694;23.346;2023-05-10T00:52:59;11.07;;;6.80;;
77287;SDS011;66345;42.694;23.346;2023-05-10T00:55:26;13.23;;;6.55;;
77287;SDS011;66345;42.694;23.346;2023-05-10T00:57:52;10.40;;;6.43;;
77287;SDS011;66345;42.694;23.346;2023-05-10T01:00:18;11.68;;;7.03;;
77287;SDS011;66345;42.694;23.346;2023-05-10T01:02:44;12.23;;;7.53;;
77287;SDS011;66345;42.694;23.346;2023-05-10T01:05:11;11.30;;;7.10;;
77287;SDS011;66345;42.694;23.346;2023-05-10T01:07:37;10.55;;;6.43;;
77287;SDS011;66345;42.694;23.346;2023-05-10T01:10:02;10.93;;;6.50;;
77287;SDS011;66345;42.694;23.346;2023-05-10T01:12:28;10.38;;;6.38;;
77287;SDS011;66345;42.694;23.346;2023-05-10T01:14:54;11.03;;;6.50;;
77287;SDS011;66345;42.694;23.346;2023-05-10T01:17:20;10.35;;;5.97;;
77287;SDS011;66345;42.694;23.346;2023-05-10T01:19:47;9.75;;;5.55;;
77287;SDS011;66345;42.694;23.346;2023-05-10T01:38:49;8.60;;;4.47;;
77287;SDS011;66345;42.694;23.346;2023-05-10T01:46:42;7.43;;;4.25;;
77287;SDS011;66345;42.694;23.346;2023-05-10T01:49:09;8.43;;;4.73;;
77287;SDS011;66345;42.694;23.346;2023-05-10T01:51:40;7.90;;;4.55;;
77287;SDS011;66345;42.694;23.346;2023-05-10T01:54:09;8.60;;;5.00;;
77287;SDS011;66345;42.694;23.346;2023-05-10T01:56:38;8.48;;;4.88;;
77287;SDS011;66345;42.694;23.346;2023-05-10T01:59:06;7.50;;;4.27;;
77287;SDS011;66345;42.694;23.346;2023-05-10T02:01:38;7.22;;;4.28;;
77287;SDS011;66345;42.694;23.346;2023-05-10T02:04:04;7.45;;;4.57;;
77287;SDS011;66345;42.694;23.346;2023-05-10T02:06:32;7.20;;;4.30;;
77287;SDS011;66345;42.694;23.346;2023-05-10T02:08:58;7.65;;;3.80;;
77287;SDS011;66345;42.694;23.346;2023-05-10T02:11:26;6.90;;;4.30;;
77287;SDS011;66345;42.694;23.346;2023-05-10T02:13:53;8.77;;;4.78;;
77287;SDS011;66345;42.694;23.346;2023-05-10T02:16:21;7.75;;;4.70;;
77287;SDS011;66345;42.694;23.346;2023-05-10T02:18:50;7.68;;;4.30;;
77287;SDS011;66345;42.694;23.346;2023-05-10T02:21:18;7.93;;;4.55;;
77287;SDS011;66345;42.694;23.346;2023-05-10T02:23:45;8.33;;;4.60;;
77287;SDS011;66345;42.694;23.346;2023-05-10T02:26:12;8.32;;;4.93;;
77287;SDS011;66345;42.694;23.346;2023-05-10T02:28:40;8.95;;;4.90;;
77287;SDS011;66345;42.694;23.346;2023-05-10T02:31:08;8.57;;;5.00;;
77287;SDS011;66345;42.694;23.346;2023-05-10T02:33:35;7.93;;;5.03;;
77287;SDS011;66345;42.694;23.346;2023-05-10T02:36:04;7.77;;;4.43;;
77287;SDS011;66345;42.694;23.346;2023-05-10T02:38:30;7.10;;;4.10;;
77287;SDS011;66345;42.694;23.346;2023-05-10T02:40:58;8.10;;;4.40;;
77287;SDS011;66345;42.694;23.346;2023-05-10T02:43:26;7.53;;;4.40;;
77287;SDS011;66345;42.694;23.346;2023-05-10T02:45:55;7.10;;;4.28;;
77287;SDS011;66345;42.694;23.346;2023-05-10T02:48:20;9.33;;;3.83;;
77287;SDS011;66345;42.694;23.346;2023-05-10T02:50:46;6.13;;;3.70;;
77287;SDS011;66345;42.694;23.346;2023-05-10T02:53:18;8.70;;;3.90;;
77287;SDS011;66345;42.694;23.346;2023-05-10T02:55:49;6.78;;;3.90;;
77287;SDS011;66345;42.694;23.346;2023-05-10T02:58:16;6.17;;;3.80;;
77287;SDS011;66345;42.694;23.346;2023-05-10T03:00:44;6.07;;;3.53;;
77287;SDS011;66345;42.694;23.346;2023-05-10T03:03:11;7.78;;;3.47;;
77287;SDS011;66345;42.694;23.346;2023-05-10T03:05:36;6.43;;;3.60;;
77287;SDS011;66345;42.694;23.346;2023-05-10T03:08:01;9.10;;;4.00;;
77287;SDS011;66345;42.694;23.346;2023-05-10T03:10:29;6.45;;;3.30;;
77287;SDS011;66345;42.694;23.346;2023-05-10T03:13:06;7.38;;;3.90;;
77287;SDS011;66345;42.694;23.346;2023-05-10T03:18:15;7.05;;;3.80;;
77287;SDS011;66345;42.694;23.346;2023-05-10T03:20:47;7.40;;;3.60;;
77287;SDS011;66345;42.694;23.346;2023-05-10T03:25:48;6.25;;;3.50;;
77287;SDS011;66345;42.694;23.346;2023-05-10T03:28:15;8.35;;;3.65;;
77287;SDS011;66345;42.694;23.346;2023-05-10T03:30:43;8.15;;;3.55;;
77287;SDS011;66345;42.694;23.346;2023-05-10T03:33:09;6.00;;;3.60;;
77287;SDS011;66345;42.694;23.346;2023-05-10T03:35:35;6.97;;;3.75;;
77287;SDS011;66345;42.694;23.346;2023-05-10T03:38:01;6.93;;;3.40;;
77287;SDS011;66345;42.694;23.346;2023-05-10T03:40:26;5.87;;;3.00;;
77287;SDS011;66345;42.694;23.346;2023-05-10T03:42:54;8.82;;;3.97;;
77287;SDS011;66345;42.694;23.346;2023-05-10T03:45:20;6.60;;;3.13;;
77287;SDS011;66345;42.694;23.346;2023-05-10T03:47:46;6.73;;;3.90;;
77287;SDS011;66345;42.694;23.346;2023-05-10T03:50:11;8.35;;;3.88;;
77287;SDS011;66345;42.694;23.346;2023-05-10T03:52:37;7.40;;;4.30;;
77287;SDS011;66345;42.694;23.346;2023-05-10T03:55:04;10.98;;;4.50;;
77287;SDS011;66345;42.694;23.346;2023-05-10T03:57:30;8.57;;;4.25;;
77287;SDS011;66345;42.694;23.346;2023-05-10T03:59:56;7.87;;;3.67;;
77287;SDS011;66345;42.694;23.346;2023-05-10T04:02:21;9.07;;;4.23;;
77287;SDS011;66345;42.694;23.346;2023-05-10T04:04:46;9.77;;;5.77;;
77287;SDS011;66345;42.694;23.346;2023-05-10T04:07:13;14.43;;;6.55;;
77287;SDS011;66345;42.694;23.346;2023-05-10T04:09:38;12.02;;;6.57;;
77287;SDS011;66345;42.694;23.346;2023-05-10T04:12:04;9.13;;;4.70;;
77287;SDS011;66345;42.694;23.346;2023-05-10T04:14:30;9.10;;;5.18;;
77287;SDS011;66345;42.694;23.346;2023-05-10T04:16:57;9.93;;;5.20;;
77287;SDS011;66345;42.694;23.346;2023-05-10T04:19:22;7.35;;;3.90;;
77287;SDS011;66345;42.694;23.346;2023-05-10T04:21:47;7.87;;;4.47;;
77287;SDS011;66345;42.694;23.346;2023-05-10T04:24:13;6.17;;;3.20;;
77287;SDS011;66345;42.694;23.346;2023-05-10T04:26:38;7.93;;;3.87;;
77287;SDS011;66345;42.694;23.346;2023-05-10T04:29:04;7.80;;;3.95;;
77287;SDS011;66345;42.694;23.346;2023-05-10T04:31:29;8.07;;;3.77;;
77287;SDS011;66345;42.694;23.346;2023-05-10T04:33:55;9.17;;;4.77;;
77287;SDS011;66345;42.694;23.346;2023-05-10T04:36:20;7.90;;;4.00;;
77287;SDS011;66345;42.694;23.346;2023-05-10T04:38:46;7.50;;;4.28;;
77287;SDS011;66345;42.694;23.346;2023-05-10T04:41:11;9.10;;;4.18;;
77287;SDS011;66345;42.694;23.346;2023-05-10T04:43:37;9.33;;;4.60;;
77287;SDS011;66345;42.694;23.346;2023-05-10T04:46:03;8.30;;;3.85;;
77287;SDS011;66345;42.694;23.346;2023-05-10T04:48:29;8.77;;;4.45;;
77287;SDS011;66345;42.694;23.346;2023-05-10T04:50:55;8.97;;;3.67;;
77287;SDS011;66345;42.694;23.346;2023-05-10T04:53:20;10.43;;;4.40;;
77287;SDS011;66345;42.694;23.346;2023-05-10T04:55:46;7.70;;;3.78;;
77287;SDS011;66345;42.694;23.346;2023-05-10T04:58:11;7.40;;;3.78;;
77287;SDS011;66345;42.694;23.346;2023-05-10T05:00:37;7.97;;;4.33;;
77287;SDS011;66345;42.694;23.346;2023-05-10T05:03:02;8.15;;;4.00;;
77287;SDS011;66345;42.694;23.346;2023-05-10T05:05:28;8.30;;;4.20;;
77287;SDS011;66345;42.694;23.346;2023-05-10T05:07:53;9.33;;;4.53;;
77287;SDS011;66345;42.694;23.346;2023-05-10T05:10:19;8.10;;;4.23;;
77287;SDS011;66345;42.694;23.346;2023-05-10T05:12:44;8.60;;;4.85;;
77287;SDS011;66345;42.694;23.346;2023-05-10T05:15:10;8.37;;;4.10;;
77287;SDS011;66345;42.694;23.346;2023-05-10T05:17:35;9.90;;;4.63;;
77287;SDS011;66345;42.694;23.346;2023-05-10T05:20:01;9.20;;;4.28;;
77287;SDS011;66345;42.694;23.346;2023-05-10T05:22:27;8.70;;;4.60;;
77287;SDS011;66345;42.694;23.346;2023-05-10T05:24:56;8.85;;;4.72;;
77287;SDS011;66345;42.694;23.346;2023-05-10T05:27:23;8.25;;;4.30;;
77287;SDS011;66345;42.694;23.346;2023-05-10T05:29:52;6.53;;;3.45;;
77287;SDS011;66345;42.694;23.346;2023-05-10T05:32:21;9.63;;;4.83;;
77287;SDS011;66345;42.694;23.346;2023-05-10T05:34:47;9.23;;;4.68;;
77287;SDS011;66345;42.694;23.346;2023-05-10T05:37:13;7.97;;;4.20;;
77287;SDS011;66345;42.694;23.346;2023-05-10T05:39:43;11.32;;;4.85;;
77287;SDS011;66345;42.694;23.346;2023-05-10T05:42:09;8.37;;;4.70;;
77287;SDS011;66345;42.694;23.346;2023-05-10T05:44:35;9.82;;;5.07;;
77287;SDS011;66345;42.694;23.346;2023-05-10T05:47:00;8.95;;;4.93;;
77287;SDS011;66345;42.694;23.346;2023-05-10T05:49:26;11.70;;;5.40;;
77287;SDS011;66345;42.694;23.346;2023-05-10T05:51:51;12.83;;;5.27;;
77287;SDS011;66345;42.694;23.346;2023-05-10T05:54:17;10.40;;;5.00;;
77287;SDS011;66345;42.694;23.346;2023-05-10T05:56:42;9.32;;;5.50;;
77287;SDS011;66345;42.694;23.346;2023-05-10T05:59:09;11.98;;;6.10;;
77287;SDS011;66345;42.694;23.346;2023-05-10T06:01:34;9.38;;;4.72;;
77287;SDS011;66345;42.694;23.346;2023-05-10T06:04:00;10.17;;;5.13;;
77287;SDS011;66345;42.694;23.346;2023-05-10T06:06:26;8.77;;;4.93;;
77287;SDS011;66345;42.694;23.346;2023-05-10T06:08:51;7.33;;;4.03;;
77287;SDS011;66345;42.694;23.346;2023-05-10T06:11:17;9.82;;;4.88;;
77287;SDS011;66345;42.694;23.346;2023-05-10T06:13:42;9.93;;;5.82;;
77287;SDS011;66345;42.694;23.346;2023-05-10T06:16:09;8.83;;;4.73;;
77287;SDS011;66345;42.694;23.346;2023-05-10T06:18:35;7.55;;;3.83;;
77287;SDS011;66345;42.694;23.346;2023-05-10T06:21:01;10.30;;;5.10;;
77287;SDS011;66345;42.694;23.346;2023-05-10T06:23:26;11.40;;;4.45;;
77287;SDS011;66345;42.694;23.346;2023-05-10T06:25:52;9.60;;;4.80;;
77287;SDS011;66345;42.694;23.346;2023-05-10T06:28:17;9.77;;;4.95;;
77287;SDS011;66345;42.694;23.346;2023-05-10T06:30:43;9.33;;;5.00;;
77287;SDS011;66345;42.694;23.346;2023-05-10T06:33:08;9.87;;;5.70;;
77287;SDS011;66345;42.694;23.346;2023-05-10T06:35:34;11.77;;;5.27;;
77287;SDS011;66345;42.694;23.346;2023-05-10T06:37:59;10.88;;;4.70;;
77287;SDS011;66345;42.694;23.346;2023-05-10T06:40:25;9.07;;;4.40;;
77287;SDS011;66345;42.694;23.346;2023-05-10T06:42:50;8.70;;;3.93;;
77287;SDS011;66345;42.694;23.346;2023-05-10T06:45:16;8.15;;;4.22;;
77287;SDS011;66345;42.694;23.346;2023-05-10T06:47:42;12.13;;;3.97;;
77287;SDS011;66345;42.694;23.346;2023-05-10T06:50:08;10.65;;;4.50;;
77287;SDS011;66345;42.694;23.346;2023-05-10T06:52:34;7.70;;;3.83;;
77287;SDS011;66345;42.694;23.346;2023-05-10T06:55:00;7.47;;;4.03;;
77287;SDS011;66345;42.694;23.346;2023-05-10T06:57:25;7.30;;;4.60;;
77287;SDS011;66345;42.694;23.346;2023-05-10T06:59:51;9.32;;;4.38;;
77287;SDS011;66345;42.694;23.346;2023-05-10T07:02:17;8.87;;;4.40;;
77287;SDS011;66345;42.694;23.346;2023-05-10T07:04:42;10.30;;;4.28;;
77287;SDS011;66345;42.694;23.346;2023-05-10T07:07:08;10.03;;;5.10;;
77287;SDS011;66345;42.694;23.346;2023-05-10T07:09:33;8.97;;;4.40;;
77287;SDS011;66345;42.694;23.346;2023-05-10T07:11:59;9.52;;;4.97;;
77287;SDS011;66345;42.694;23.346;2023-05-10T07:14:25;8.93;;;4.83;;
77287;SDS011;66345;42.694;23.346;2023-05-10T07:16:51;8.18;;;4.30;;
77287;SDS011;66345;42.694;23.346;2023-05-10T07:19:17;8.05;;;4.10;;
77287;SDS011;66345;42.694;23.346;2023-05-10T07:21:42;9.07;;;4.33;;
77287;SDS011;66345;42.694;23.346;2023-05-10T07:24:08;8.02;;;4.00;;
77287;SDS011;66345;42.694;23.346;2023-05-10T07:26:34;7.93;;;4.05;;
77287;SDS011;66345;42.694;23.346;2023-05-10T07:28:59;9.73;;;4.63;;
77287;SDS011;66345;42.694;23.346;2023-05-10T07:31:25;8.75;;;4.07;;
77287;SDS011;66345;42.694;23.346;2023-05-10T07:33:50;8.43;;;4.00;;
77287;SDS011;66345;42.694;23.346;2023-05-10T07:36:16;11.50;;;4.10;;
77287;SDS011;66345;42.694;23.346;2023-05-10T07:38:41;9.20;;;4.30;;
77287;SDS011;66345;42.694;23.346;2023-05-10T07:41:07;7.77;;;3.80;;
77287;SDS011;66345;42.694;23.346;2023-05-10T07:43:32;10.23;;;4.83;;
77287;SDS011;66345;42.694;23.346;2023-05-10T07:45:58;10.67;;;5.17;;
77287;SDS011;66345;42.694;23.346;2023-05-10T07:48:24;10.43;;;5.45;;
77287;SDS011;66345;42.694;23.346;2023-05-10T07:50:50;9.63;;;5.30;;
77287;SDS011;66345;42.694;23.346;2023-05-10T07:53:15;11.77;;;5.37;;
77287;SDS011;66345;42.694;23.346;2023-05-10T07:55:41;10.73;;;5.10;;
77287;SDS011;66345;42.694;23.346;2023-05-10T07:58:07;8.30;;;5.53;;
77287;SDS011;66345;42.694;23.346;2023-05-10T08:00:32;10.03;;;4.97;;
77287;SDS011;66345;42.694;23.346;2023-05-10T08:02:58;9.83;;;4.97;;
77287;SDS011;66345;42.694;23.346;2023-05-10T08:05:23;10.83;;;5.73;;
77287;SDS011;66345;42.694;23.346;2023-05-10T08:07:48;7.17;;;4.47;;
77287;SDS011;66345;42.694;23.346;2023-05-10T08:10:14;7.60;;;4.55;;
77287;SDS011;66345;42.694;23.346;2023-05-10T08:12:39;8.03;;;4.33;;
77287;SDS011;66345;42.694;23.346;2023-05-10T08:15:05;8.20;;;5.03;;
77287;SDS011;66345;42.694;23.346;2023-05-10T08:17:32;9.13;;;4.40;;
77287;SDS011;66345;42.694;23.346;2023-05-10T08:19:57;9.10;;;4.77;;
77287;SDS011;66345;42.694;23.346;2023-05-10T08:22:23;9.57;;;5.33;;
77287;SDS011;66345;42.694;23.346;2023-05-10T08:24:48;11.35;;;5.53;;
77287;SDS011;66345;42.694;23.346;2023-05-10T08:27:13;9.80;;;4.70;;
77287;SDS011;66345;42.694;23.346;2023-05-10T08:29:39;8.20;;;4.40;;
77287;SDS011;66345;42.694;23.346;2023-05-10T08:32:04;9.07;;;4.50;;
77287;SDS011;66345;42.694;23.346;2023-05-10T08:34:30;8.05;;;5.00;;
77287;SDS011;66345;42.694;23.346;2023-05-10T08:36:56;8.90;;;5.60;;
77287;SDS011;66345;42.694;23.346;2023-05-10T08:39:23;10.20;;;5.53;;
77287;SDS011;66345;42.694;23.346;2023-05-10T08:41:48;9.20;;;5.07;;
77287;SDS011;66345;42.694;23.346;2023-05-10T08:44:16;9.85;;;5.35;;
77287;SDS011;66345;42.694;23.346;2023-05-10T08:46:44;9.63;;;5.28;;
77287;SDS011;66345;42.694;23.346;2023-05-10T08:49:12;7.72;;;5.10;;
77287;SDS011;66345;42.694;23.346;2023-05-10T08:51:41;7.93;;;4.43;;
77287;SDS011;66345;42.694;23.346;2023-05-10T08:54:12;8.05;;;4.88;;
77287;SDS011;66345;42.694;23.346;2023-05-10T08:56:38;10.18;;;5.70;;
77287;SDS011;66345;42.694;23.346;2023-05-10T08:59:04;11.57;;;6.13;;
77287;SDS011;66345;42.694;23.346;2023-05-10T09:01:29;9.82;;;5.40;;
77287;SDS011;66345;42.694;23.346;2023-05-10T09:03:56;8.17;;;4.73;;
77287;SDS011;66345;42.694;23.346;2023-05-10T09:06:23;9.15;;;5.57;;
77287;SDS011;66345;42.694;23.346;2023-05-10T09:08:49;8.40;;;5.13;;
77287;SDS011;66345;42.694;23.346;2023-05-10T09:11:15;9.05;;;5.22;;
77287;SDS011;66345;42.694;23.346;2023-05-10T09:13:41;9.87;;;5.80;;
77287;SDS011;66345;42.694;23.346;2023-05-10T09:16:07;11.45;;;5.32;;
77287;SDS011;66345;42.694;23.346;2023-05-10T09:18:32;9.17;;;5.80;;
77287;SDS011;66345;42.694;23.346;2023-05-10T09:20:58;8.45;;;5.03;;
77287;SDS011;66345;42.694;23.346;2023-05-10T09:23:23;7.93;;;4.90;;
77287;SDS011;66345;42.694;23.346;2023-05-10T09:26:03;10.23;;;6.30;;
77287;SDS011;66345;42.694;23.346;2023-05-10T09:28:32;12.10;;;6.20;;
77287;SDS011;66345;42.694;23.346;2023-05-10T09:31:00;9.18;;;5.50;;
77287;SDS011;66345;42.694;23.346;2023-05-10T09:33:26;8.23;;;4.93;;
77287;SDS011;66345;42.694;23.346;2023-05-10T09:35:51;9.40;;;5.57;;
77287;SDS011;66345;42.694;23.346;2023-05-10T09:38:17;11.00;;;5.70;;
77287;SDS011;66345;42.694;23.346;2023-05-10T09:40:43;8.68;;;5.35;;
77287;SDS011;66345;42.694;23.346;2023-05-10T09:43:19;11.73;;;4.57;;
77287;SDS011;66345;42.694;23.346;2023-05-10T09:45:45;11.57;;;5.40;;
77287;SDS011;66345;42.694;23.346;2023-05-10T09:48:14;8.32;;;4.43;;
77287;SDS011;66345;42.694;23.346;2023-05-10T09:50:40;13.45;;;6.00;;
77287;SDS011;66345;42.694;23.346;2023-05-10T09:53:06;11.00;;;5.00;;
77287;SDS011;66345;42.694;23.346;2023-05-10T09:58:04;12.07;;;4.70;;
77287;SDS011;66345;42.694;23.346;2023-05-10T10:00:35;9.00;;;5.47;;
77287;SDS011;66345;42.694;23.346;2023-05-10T10:03:02;8.00;;;4.65;;
77287;SDS011;66345;42.694;23.346;2023-05-10T10:05:31;10.48;;;5.15;;
77287;SDS011;66345;42.694;23.346;2023-05-10T10:07:59;8.45;;;4.63;;
77287;SDS011;66345;42.694;23.346;2023-05-10T10:10:25;6.82;;;4.50;;
77287;SDS011;66345;42.694;23.346;2023-05-10T10:12:53;9.85;;;4.47;;
77287;SDS011;66345;42.694;23.346;2023-05-10T10:15:22;7.40;;;4.05;;
77287;SDS011;66345;42.694;23.346;2023-05-10T10:17:48;6.88;;;4.22;;
77287;SDS011;66345;42.694;23.346;2023-05-10T10:20:15;6.97;;;3.88;;
77287;SDS011;66345;42.694;23.346;2023-05-10T10:22:41;7.65;;;4.63;;
77287;SDS011;66345;42.694;23.346;2023-05-10T10:25:09;9.82;;;4.57;;
77287;SDS011;66345;42.694;23.346;2023-05-10T10:27:42;9.43;;;5.88;;
77287;SDS011;66345;42.694;23.346;2023-05-10T10:35:31;6.18;;;3.80;;
77287;SDS011;66345;42.694;23.346;2023-05-10T10:37:58;7.85;;;4.63;;
77287;SDS011;66345;42.694;23.346;2023-05-10T10:40:27;8.90;;;4.80;;
77287;SDS011;66345;42.694;23.346;2023-05-10T10:42:53;7.78;;;4.72;;
77287;SDS011;66345;42.694;23.346;2023-05-10T10:45:20;8.05;;;4.55;;
77287;SDS011;66345;42.694;23.346;2023-05-10T10:47:46;9.70;;;4.57;;
77287;SDS011;66345;42.694;23.346;2023-05-10T10:50:12;8.73;;;5.20;;
77287;SDS011;66345;42.694;23.346;2023-05-10T11:00:21;8.05;;;4.47;;
77287;SDS011;66345;42.694;23.346;2023-05-10T11:03:11;6.85;;;4.22;;
77287;SDS011;66345;42.694;23.346;2023-05-10T11:11:03;8.02;;;4.20;;
77287;SDS011;66345;42.694;23.346;2023-05-10T11:13:37;9.90;;;5.47;;
77287;SDS011;66345;42.694;23.346;2023-05-10T11:18:36;8.00;;;4.65;;
77287;SDS011;66345;42.694;23.346;2023-05-10T11:21:02;8.05;;;4.72;;
77287;SDS011;66345;42.694;23.346;2023-05-10T11:23:49;8.55;;;4.75;;
77287;SDS011;66345;42.694;23.346;2023-05-10T11:26:16;7.45;;;4.35;;
77287;SDS011;66345;42.694;23.346;2023-05-10T11:28:45;8.20;;;4.03;;
77287;SDS011;66345;42.694;23.346;2023-05-10T11:31:14;7.53;;;3.97;;
77287;SDS011;66345;42.694;23.346;2023-05-10T11:33:47;7.10;;;4.38;;
77287;SDS011;66345;42.694;23.346;2023-05-10T11:36:29;7.30;;;4.30;;
77287;SDS011;66345;42.694;23.346;2023-05-10T11:38:58;9.40;;;4.30;;
77287;SDS011;66345;42.694;23.346;2023-05-10T11:41:24;8.00;;;4.20;;
77287;SDS011;66345;42.694;23.346;2023-05-10T11:43:54;6.93;;;4.32;;
77287;SDS011;66345;42.694;23.346;2023-05-10T11:46:23;8.60;;;4.40;;
77287;SDS011;66345;42.694;23.346;2023-05-10T11:48:51;7.28;;;4.63;;
77287;SDS011;66345;42.694;23.346;2023-05-10T11:51:29;7.40;;;4.40;;
77287;SDS011;66345;42.694;23.346;2023-05-10T11:53:55;8.25;;;4.63;;
77287;SDS011;66345;42.694;23.346;2023-05-10T11:56:21;10.57;;;4.53;;
77287;SDS011;66345;42.694;23.346;2023-05-10T11:58:52;11.40;;;4.90;;
77287;SDS011;66345;42.694;23.346;2023-05-10T12:01:21;7.10;;;4.50;;
77287;SDS011;66345;42.694;23.346;2023-05-10T12:03:52;8.70;;;4.47;;
77287;SDS011;66345;42.694;23.346;2023-05-10T12:06:19;8.77;;;4.90;;
77287;SDS011;66345;42.694;23.346;2023-05-10T12:08:46;7.80;;;4.60;;
77287;SDS011;66345;42.694;23.346;2023-05-10T12:11:12;7.20;;;4.63;;
77287;SDS011;66345;42.694;23.346;2023-05-10T12:13:40;7.60;;;4.30;;
77287;SDS011;66345;42.694;23.346;2023-05-10T12:16:17;10.90;;;4.53;;
77287;SDS011;66345;42.694;23.346;2023-05-10T12:18:44;8.30;;;4.68;;
77287;SDS011;66345;42.694;23.346;2023-05-10T12:21:12;8.93;;;4.80;;
77287;SDS011;66345;42.694;23.346;2023-05-10T12:23:39;8.02;;;4.80;;
77287;SDS011;66345;42.694;23.346;2023-05-10T12:26:05;6.82;;;4.20;;
77287;SDS011;66345;42.694;23.346;2023-05-10T12:28:31;11.27;;;5.00;;
77287;SDS011;66345;42.694;23.346;2023-05-10T12:30:59;8.10;;;4.70;;
77287;SDS011;66345;42.694;23.346;2023-05-10T12:33:24;8.43;;;4.72;;
77287;SDS011;66345;42.694;23.346;2023-05-10T12:35:51;8.20;;;4.50;;
77287;SDS011;66345;42.694;23.346;2023-05-10T12:38:24;9.50;;;4.82;;
77287;SDS011;66345;42.694;23.346;2023-05-10T12:40:54;11.45;;;5.32;;
77287;SDS011;66345;42.694;23.346;2023-05-10T12:43:24;10.20;;;5.00;;
77287;SDS011;66345;42.694;23.346;2023-05-10T12:45:50;10.90;;;4.75;;
77287;SDS011;66345;42.694;23.346;2023-05-10T12:48:15;7.20;;;4.77;;
77287;SDS011;66345;42.694;23.346;2023-05-10T12:50:41;11.07;;;5.20;;
77287;SDS011;66345;42.694;23.346;2023-05-10T12:53:07;8.63;;;4.20;;
77287;SDS011;66345;42.694;23.346;2023-05-10T12:55:32;10.32;;;4.63;;
77287;SDS011;66345;42.694;23.346;2023-05-10T12:57:58;11.70;;;4.82;;
77287;SDS011;66345;42.694;23.346;2023-05-10T13:00:24;8.77;;;4.80;;
77287;SDS011;66345;42.694;23.346;2023-05-10T13:02:50;9.88;;;4.40;;
77287;SDS011;66345;42.694;23.346;2023-05-10T13:05:15;8.50;;;4.33;;
77287;SDS011;66345;42.694;23.346;2023-05-10T13:07:41;7.27;;;4.23;;
77287;SDS011;66345;42.694;23.346;2023-05-10T13:10:08;8.70;;;4.55;;
77287;SDS011;66345;42.694;23.346;2023-05-10T13:12:34;9.48;;;4.57;;
77287;SDS011;66345;42.694;23.346;2023-05-10T13:15:00;7.77;;;4.37;;
77287;SDS011;66345;42.694;23.346;2023-05-10T13:17:26;8.27;;;4.60;;
77287;SDS011;66345;42.694;23.346;2023-05-10T13:19:51;7.53;;;4.30;;
77287;SDS011;66345;42.694;23.346;2023-05-10T13:22:16;10.57;;;4.97;;
77287;SDS011;66345;42.694;23.346;2023-05-10T13:24:42;8.07;;;4.20;;
77287;SDS011;66345;42.694;23.346;2023-05-10T13:27:08;7.55;;;4.75;;
77287;SDS011;66345;42.694;23.346;2023-05-10T13:29:33;8.57;;;3.90;;
77287;SDS011;66345;42.694;23.346;2023-05-10T13:31:58;9.30;;;4.37;;
77287;SDS011;66345;42.694;23.346;2023-05-10T13:34:24;13.30;;;4.40;;
77287;SDS011;66345;42.694;23.346;2023-05-10T13:36:50;9.67;;;3.77;;
77287;SDS011;66345;42.694;23.346;2023-05-10T13:39:15;8.73;;;4.77;;
77287;SDS011;66345;42.694;23.346;2023-05-10T13:41:41;8.02;;;4.40;;
77287;SDS011;66345;42.694;23.346;2023-05-10T13:44:07;8.90;;;4.80;;
77287;SDS011;66345;42.694;23.346;2023-05-10T13:46:32;9.23;;;4.63;;
77287;SDS011;66345;42.694;23.346;2023-05-10T13:48:58;8.33;;;4.33;;
77287;SDS011;66345;42.694;23.346;2023-05-10T13:51:23;7.13;;;3.97;;
77287;SDS011;66345;42.694;23.346;2023-05-10T13:53:49;9.90;;;4.43;;
77287;SDS011;66345;42.694;23.346;2023-05-10T13:56:14;10.80;;;4.60;;
77287;SDS011;66345;42.694;23.346;2023-05-10T13:58:40;7.60;;;4.30;;
77287;SDS011;66345;42.694;23.346;2023-05-10T14:01:06;8.50;;;4.90;;
77287;SDS011;66345;42.694;23.346;2023-05-10T14:03:31;7.47;;;5.00;;
77287;SDS011;66345;42.694;23.346;2023-05-10T14:05:57;9.05;;;4.93;;
77287;SDS011;66345;42.694;23.346;2023-05-10T14:08:23;7.83;;;4.23;;
77287;SDS011;66345;42.694;23.346;2023-05-10T14:10:48;11.27;;;5.00;;
77287;SDS011;66345;42.694;23.346;2023-05-10T14:13:14;10.43;;;4.43;;
77287;SDS011;66345;42.694;23.346;2023-05-10T14:15:40;8.05;;;4.78;;
77287;SDS011;66345;42.694;23.346;2023-05-10T14:18:06;9.57;;;4.72;;
77287;SDS011;66345;42.694;23.346;2023-05-10T14:20:31;7.30;;;4.60;;
77287;SDS011;66345;42.694;23.346;2023-05-10T14:22:58;9.32;;;5.30;;
77287;SDS011;66345;42.694;23.346;2023-05-10T14:25:24;8.05;;;4.47;;
77287;SDS011;66345;42.694;23.346;2023-05-10T14:27:50;7.90;;;4.40;;
77287;SDS011;66345;42.694;23.346;2023-05-10T14:30:15;8.40;;;4.80;;
77287;SDS011;66345;42.694;23.346;2023-05-10T14:32:41;7.67;;;4.53;;
77287;SDS011;66345;42.694;23.346;2023-05-10T14:35:06;8.43;;;4.70;;
77287;SDS011;66345;42.694;23.346;2023-05-10T14:37:32;11.65;;;4.57;;
77287;SDS011;66345;42.694;23.346;2023-05-10T14:39:58;7.90;;;4.50;;
77287;SDS011;66345;42.694;23.346;2023-05-10T14:42:23;10.97;;;5.03;;
77287;SDS011;66345;42.694;23.346;2023-05-10T14:44:49;10.20;;;5.00;;
77287;SDS011;66345;42.694;23.346;2023-05-10T14:47:14;10.93;;;5.10;;
77287;SDS011;66345;42.694;23.346;2023-05-10T14:49:40;9.10;;;4.43;;
77287;SDS011;66345;42.694;23.346;2023-05-10T14:52:05;7.80;;;4.95;;
77287;SDS011;66345;42.694;23.346;2023-05-10T14:54:31;7.53;;;4.10;;
77287;SDS011;66345;42.694;23.346;2023-05-10T14:56:58;8.05;;;4.35;;
77287;SDS011;66345;42.694;23.346;2023-05-10T14:59:24;9.48;;;4.63;;
77287;SDS011;66345;42.694;23.346;2023-05-10T15:01:49;11.90;;;4.77;;
77287;SDS011;66345;42.694;23.346;2023-05-10T15:04:15;7.83;;;4.63;;
77287;SDS011;66345;42.694;23.346;2023-05-10T15:06:41;9.30;;;5.25;;
77287;SDS011;66345;42.694;23.346;2023-05-10T15:09:07;9.77;;;4.72;;
77287;SDS011;66345;42.694;23.346;2023-05-10T15:11:32;10.17;;;5.00;;
77287;SDS011;66345;42.694;23.346;2023-05-10T15:13:58;7.97;;;4.53;;
77287;SDS011;66345;42.694;23.346;2023-05-10T15:16:23;7.60;;;4.82;;
77287;SDS011;66345;42.694;23.346;2023-05-10T15:18:49;7.93;;;4.47;;